Time;durP1;ratioP1;P1;durP2;ratioP2;P2;SDS_P1;SDS_P2;PMS_P1;PMS_P2;Temp;Humidity;BMP_temperature;BMP_pressure;BME280_temperature;BME280_humidity;BME280_pressure;Samples;Min_cycle;Max_cycle;Signal;HPM_P1;HPM_P2
2022/06/26 00:02:14;;;;;;;1.27;1.23;;;17.10;99.90;;;;;;5007368;28;20415;-55
2022/06/26 00:04:41;;;;;;;2.25;1.70;;;17.10;99.90;;;;;;4992391;28;20781;-54
2022/06/26 00:07:08;;;;;;;3.33;1.13;;;17.10;99.90;;;;;;4991655;28;20128;-54
2022/06/26 00:09:35;;;;;;;3.17;1.40;;;17.20;99.90;;;;;;4992998;28;20555;-56
2022/06/26 00:12:01;;;;;;;;;;;17.40;99.90;;;;;;4993079;28;20049;-55
2022/06/26 00:14:28;;;;;;;6.38;1.52;;;17.60;99.90;;;;;;4993400;28;20367;-56
2022/06/26 00:16:55;;;;;;;;;;;17.80;99.90;;;;;;4996064;28;20551;-55
2022/06/26 00:19:22;;;;;;;1.40;1.30;;;17.90;99.90;;;;;;5012691;28;20145;-56
2022/06/26 00:21:50;;;;;;;3.00;1.38;;;17.90;99.90;;;;;;5012485;28;20057;-55
2022/06/26 00:24:18;;;;;;;2.22;1.40;;;18.00;99.90;;;;;;5012696;28;20293;-56
2022/06/26 00:26:45;;;;;;;3.35;1.55;;;18.00;99.90;;;;;;5010977;28;20049;-54
2022/06/26 00:29:11;;;;;;;2.03;1.30;;;18.00;99.90;;;;;;5009913;28;20084;-57
2022/06/26 00:31:38;;;;;;;4.25;1.35;;;17.90;99.90;;;;;;5012602;28;20088;-55
2022/06/26 00:34:05;;;;;;;1.85;1.60;;;17.90;99.90;;;;;;5010694;28;20457;-55
2022/06/26 00:36:32;;;;;;;3.60;1.25;;;17.90;99.90;;;;;;5012394;28;20038;-55
2022/06/26 00:38:59;;;;;;;1.60;1.13;;;17.80;99.90;;;;;;5012188;28;20359;-57
2022/06/26 00:41:25;;;;;;;;;;;17.80;99.90;;;;;;5011946;28;20585;-55
2022/06/26 00:43:52;;;;;;;1.50;1.40;;;17.80;99.90;;;;;;5012653;28;19927;-55
2022/06/26 00:46:24;;;;;;;6.82;1.42;;;17.70;99.90;;;;;;5012023;28;20053;-56
2022/06/26 00:48:52;;;;;;;1.40;1.30;;;17.70;99.90;;;;;;5010407;28;20072;-55
2022/06/26 00:51:21;;;;;;;4.93;1.35;;;17.70;99.90;;;;;;5011404;28;20046;-55
2022/06/26 00:53:48;;;;;;;2.70;1.35;;;17.60;99.90;;;;;;5012804;28;20041;-55
2022/06/26 00:56:15;;;;;;;3.45;1.10;;;17.70;99.90;;;;;;5002749;28;20041;-55
2022/06/26 00:58:42;;;;;;;2.10;1.48;;;17.60;99.90;;;;;;4989711;28;20133;-55
2022/06/26 01:01:09;;;;;;;3.63;1.20;;;17.60;99.90;;;;;;4991539;28;20338;-55
2022/06/26 01:03:36;;;;;;;3.50;1.02;;;17.60;99.90;;;;;;4990738;28;20052;-54
2022/06/26 01:06:06;;;;;;;1.35;1.10;;;17.60;99.90;;;;;;4992824;28;20485;-55
2022/06/26 01:08:36;;;;;;;1.88;1.10;;;17.60;99.90;;;;;;4990749;28;20594;-54
2022/06/26 01:11:17;;;;;;;1.88;1.38;;;17.60;99.90;;;;;;4992542;28;20076;-55
2022/06/26 01:13:49;;;;;;;0.90;0.90;;;17.50;99.90;;;;;;4990416;28;20191;-56
2022/06/26 01:16:17;;;;;;;2.63;1.20;;;17.50;99.90;;;;;;4992631;28;20334;-55
2022/06/26 01:18:47;;;;;;;1.77;1.23;;;17.50;99.90;;;;;;5007827;28;20534;-54
2022/06/26 01:21:17;;;;;;;2.70;1.48;;;17.50;99.90;;;;;;5012623;28;20439;-56
2022/06/26 01:23:47;;;;;;;3.97;1.42;;;17.40;99.90;;;;;;5012589;28;20045;-55
2022/06/26 01:26:14;;;;;;;5.20;1.15;;;17.40;99.90;;;;;;5010186;28;20072;-54
2022/06/26 01:28:41;;;;;;;1.45;1.30;;;17.40;99.90;;;;;;5009769;28;20061;-54
2022/06/26 01:31:09;;;;;;;3.05;1.00;;;17.40;99.90;;;;;;4990202;28;20423;-55
2022/06/26 01:33:36;;;;;;;1.10;0.93;;;17.40;99.90;;;;;;4991284;28;20057;-53
2022/06/26 01:36:05;;;;;;;2.03;1.15;;;17.40;99.90;;;;;;4989941;28;20045;-54
2022/06/26 01:38:33;;;;;;;1.48;1.38;;;17.30;99.90;;;;;;4993997;28;20049;-54
2022/06/26 01:41:01;;;;;;;3.40;1.27;;;17.30;99.90;;;;;;4995009;28;20708;-55
2022/06/26 01:43:31;;;;;;;1.38;0.90;;;17.30;99.90;;;;;;5012708;28;20049;-55
2022/06/26 01:45:58;;;;;;;1.05;0.95;;;17.30;99.90;;;;;;5014350;28;20065;-54
2022/06/26 01:48:30;;;;;;;2.40;0.95;;;17.30;99.90;;;;;;5012448;28;20060;-56
2022/06/26 01:51:00;;;;;;;1.20;1.10;;;17.30;99.90;;;;;;5013491;28;20538;-55
2022/06/26 01:53:28;;;;;;;0.90;0.90;;;17.30;99.90;;;;;;5014844;28;20671;-55
2022/06/26 01:55:55;;;;;;;1.27;1.17;;;17.20;99.90;;;;;;5015004;28;20041;-55
2022/06/26 01:58:33;;;;;;;;;;;17.20;99.90;;;;;;5011163;28;20088;-57
2022/06/26 02:01:00;;;;;;;2.40;1.40;;;17.20;99.90;;;;;;5014237;28;19929;-56
2022/06/26 02:03:28;;;;;;;2.15;1.23;;;17.10;99.90;;;;;;5013815;28;20172;-54
2022/06/26 02:05:55;;;;;;;1.33;1.00;;;17.10;99.90;;;;;;5013089;28;20164;-54
2022/06/26 02:08:22;;;;;;;1.90;1.20;;;17.10;99.90;;;;;;5014034;28;20053;-54
2022/06/26 02:13:36;;;;;;;5.78;1.73;;;17.00;99.90;;;;;;5013180;28;20049;-55
2022/06/26 02:16:16;;;;;;;0.80;0.80;;;17.00;99.90;;;;;;5013239;28;20042;-55
2022/06/26 02:18:47;;;;;;;1.15;1.00;;;16.90;99.90;;;;;;5012547;28;20415;-56
2022/06/26 02:21:15;;;;;;;1.65;1.55;;;16.90;99.90;;;;;;5015309;28;20037;-55
2022/06/26 02:23:43;;;;;;;7.82;1.45;;;16.90;99.90;;;;;;5014892;28;20051;-56
2022/06/26 02:26:11;;;;;;;1.20;1.10;;;16.90;99.90;;;;;;5013743;28;20057;-55
2022/06/26 02:28:39;;;;;;;1.48;1.17;;;16.80;99.90;;;;;;5013352;28;20829;-54
2022/06/26 02:31:07;;;;;;;1.67;1.50;;;16.80;99.90;;;;;;5013015;28;20681;-55
2022/06/26 02:33:38;;;;;;;1.63;1.50;;;16.90;99.90;;;;;;5014217;28;20045;-54
2022/06/26 02:36:06;;;;;;;1.70;1.40;;;16.90;99.90;;;;;;5012982;28;20049;-54
2022/06/26 02:38:34;;;;;;;5.30;1.67;;;16.90;99.90;;;;;;5011972;28;20699;-53
2022/06/26 02:41:03;;;;;;;1.63;1.50;;;16.90;99.90;;;;;;5013039;28;20049;-55
2022/06/26 02:43:30;;;;;;;3.33;1.70;;;16.90;99.90;;;;;;5012379;28;20049;-55
2022/06/26 02:45:58;;;;;;;1.52;1.42;;;16.90;99.90;;;;;;5013662;28;20051;-56
2022/06/26 02:48:26;;;;;;;1.17;1.15;;;16.90;99.90;;;;;;5013091;28;20100;-54
2022/06/26 02:50:53;;;;;;;1.80;1.23;;;16.90;99.90;;;;;;5013106;28;20092;-54
2022/06/26 02:53:20;;;;;;;2.67;1.48;;;16.90;99.90;;;;;;5014067;28;20104;-55
2022/06/26 02:55:49;;;;;;;1.25;1.17;;;16.90;99.90;;;;;;5013152;28;20481;-55
2022/06/26 02:58:17;;;;;;;2.75;1.52;;;16.80;99.90;;;;;;5011480;28;20555;-54
2022/06/26 03:00:56;;;;;;;2.75;1.50;;;16.80;99.90;;;;;;5005279;28;20061;-56
2022/06/26 03:03:24;;;;;;;2.70;1.20;;;16.90;99.90;;;;;;4993041;28;20056;-54
2022/06/26 03:05:51;;;;;;;1.98;1.25;;;16.80;99.90;;;;;;4993811;28;20279;-55
2022/06/26 03:08:22;;;;;;;3.40;1.55;;;16.80;99.90;;;;;;4993113;28;20124;-55
2022/06/26 03:10:50;;;;;;;1.23;1.13;;;16.80;99.90;;;;;;4993270;28;20080;-54
2022/06/26 03:13:17;;;;;;;2.63;1.35;;;16.80;99.90;;;;;;4993646;28;20049;-55
2022/06/26 03:15:45;;;;;;;1.77;1.30;;;16.80;99.90;;;;;;4993526;28;20321;-56
2022/06/26 03:18:14;;;;;;;1.70;1.35;;;16.80;99.90;;;;;;5006678;28;20395;-56
2022/06/26 03:20:41;;;;;;;3.38;1.27;;;16.80;99.90;;;;;;5013061;28;20283;-55
2022/06/26 03:23:10;;;;;;;2.72;1.35;;;16.80;99.90;;;;;;5013269;28;20095;-55
2022/06/26 03:25:37;;;;;;;3.17;1.30;;;16.80;99.90;;;;;;5012466;28;20053;-56
2022/06/26 03:28:04;;;;;;;1.85;1.33;;;16.80;99.90;;;;;;5012587;28;20052;-55
2022/06/26 03:30:38;;;;;;;2.95;1.50;;;16.90;99.90;;;;;;5012334;28;20049;-56
2022/06/26 03:33:05;;;;;;;2.42;1.05;;;16.80;99.90;;;;;;5013149;28;20052;-54
2022/06/26 03:35:34;;;;;;;2.08;1.70;;;16.90;99.90;;;;;;5012902;28;20076;-54
2022/06/26 03:38:02;;;;;;;1.85;1.40;;;16.90;99.90;;;;;;5012570;28;20045;-55
2022/06/26 03:40:29;;;;;;;1.20;1.10;;;16.90;99.90;;;;;;5012402;28;20053;-55
2022/06/26 03:42:56;;;;;;;1.90;1.58;;;16.90;99.90;;;;;;5011253;28;20057;-54
2022/06/26 03:45:24;;;;;;;1.65;1.33;;;16.90;99.90;;;;;;5012809;28;20372;-55
2022/06/26 03:47:51;;;;;;;1.40;1.30;;;16.90;99.90;;;;;;5012410;28;20049;-54
2022/06/26 03:50:18;;;;;;;2.50;1.23;;;16.90;99.90;;;;;;5012444;28;20579;-52
2022/06/26 03:52:47;;;;;;;1.60;1.50;;;16.90;99.90;;;;;;5012206;28;20077;-56
2022/06/26 03:55:14;;;;;;;2.92;1.27;;;16.90;99.90;;;;;;5012613;28;20045;-54
2022/06/26 03:57:42;;;;;;;1.52;1.30;;;16.90;99.90;;;;;;5011887;28;20104;-55
2022/06/26 04:00:09;;;;;;;2.55;1.73;;;17.00;99.90;;;;;;5009894;28;20038;-55
2022/06/26 04:02:42;;;;;;;4.10;2.33;;;17.00;99.90;;;;;;5012843;28;20052;-56
2022/06/26 04:05:14;;;;;;;4.43;1.63;;;17.00;99.90;;;;;;5012563;28;20050;-55
2022/06/26 04:07:40;;;;;;;1.88;1.45;;;17.10;99.90;;;;;;5014119;28;20038;-55
2022/06/26 04:10:16;;;;;;;3.25;2.28;;;17.10;99.90;;;;;;5011623;28;20060;-56
2022/06/26 04:12:43;;;;;;;2.45;1.77;;;17.10;99.90;;;;;;5012414;28;20045;-55
2022/06/26 04:15:10;;;;;;;2.13;1.60;;;17.10;99.90;;;;;;5012942;28;20073;-55
2022/06/26 04:17:39;;;;;;;1.70;1.20;;;17.20;99.90;;;;;;5011403;28;20137;-56
2022/06/26 04:20:12;;;;;;;1.38;1.27;;;17.20;99.90;;;;;;5012619;28;20076;-55
2022/06/26 04:22:39;;;;;;;1.42;1.33;;;17.20;99.90;;;;;;5012713;28;20528;-55
2022/06/26 04:25:10;;;;;;;1.52;1.23;;;17.20;99.90;;;;;;5012493;28;20050;-55
2022/06/26 04:27:38;;;;;;;1.60;1.35;;;17.20;99.90;;;;;;5011948;28;20042;-55
2022/06/26 04:30:06;;;;;;;1.38;1.27;;;17.30;99.90;;;;;;5011687;28;20045;-55
2022/06/26 04:32:33;;;;;;;1.48;1.27;;;17.30;99.90;;;;;;5011144;28;20593;-55
2022/06/26 04:35:06;;;;;;;1.25;1.15;;;17.40;99.90;;;;;;5012096;28;20729;-54
2022/06/26 04:37:34;;;;;;;7.30;1.75;;;17.30;99.90;;;;;;5012165;28;20577;-56
2022/06/26 04:40:04;;;;;;;1.58;1.48;;;17.40;99.90;;;;;;5010930;28;20058;-56
2022/06/26 04:42:31;;;;;;;1.65;1.38;;;17.30;99.90;;;;;;5011675;28;20593;-57
2022/06/26 04:44:58;;;;;;;3.92;1.50;;;17.30;99.90;;;;;;5011962;28;20415;-54
2022/06/26 04:47:25;;;;;;;0.98;0.98;;;17.30;99.90;;;;;;5011616;28;20140;-52
2022/06/26 04:50:04;;;;;;;2.10;1.35;;;17.40;99.90;;;;;;5010986;28;20633;-55
2022/06/26 04:52:30;;;;;;;1.00;0.90;;;17.40;99.90;;;;;;5012034;28;21083;-55
2022/06/26 04:54:57;;;;;;;3.50;0.93;;;17.40;99.90;;;;;;5012222;28;20041;-54
2022/06/26 04:57:27;;;;;;;1.98;1.10;;;17.50;99.90;;;;;;4995600;28;20853;-56
2022/06/26 04:59:54;;;;;;;1.20;1.10;;;17.50;99.90;;;;;;5006423;28;20045;-55
2022/06/26 05:02:21;;;;;;;2.40;1.20;;;17.50;99.90;;;;;;5008072;28;20049;-55
2022/06/26 05:04:51;;;;;;;1.50;1.40;;;17.60;99.90;;;;;;5013422;28;20069;-53
2022/06/26 05:07:30;;;;;;;2.28;1.00;;;17.60;99.90;;;;;;5012348;28;20053;-56
2022/06/26 05:09:58;;;;;;;1.60;1.50;;;17.70;99.90;;;;;;5011111;28;20045;-55
2022/06/26 05:12:27;;;;;;;1.75;1.50;;;17.80;99.90;;;;;;5012911;28;20285;-56
2022/06/26 05:15:10;;;;;;;4.28;1.15;;;17.80;99.90;;;;;;5015623;28;20053;-56
2022/06/26 05:17:41;;;;;;;1.55;1.45;;;17.90;99.90;;;;;;5015778;28;20048;-55
2022/06/26 05:20:08;;;;;;;1.85;1.05;;;17.90;99.90;;;;;;5014831;28;20490;-52
2022/06/26 05:22:35;;;;;;;1.08;0.85;;;18.00;99.90;;;;;;5015226;28;20057;-53
2022/06/26 05:25:02;;;;;;;1.48;0.90;;;18.10;99.90;;;;;;5014962;28;20095;-51
2022/06/26 05:27:29;;;;;;;2.08;1.40;;;18.10;99.90;;;;;;5016218;28;20045;-52
2022/06/26 05:29:56;;;;;;;1.13;1.00;;;18.10;99.90;;;;;;5013996;28;20668;-52
2022/06/26 05:32:23;;;;;;;1.23;1.13;;;18.20;99.90;;;;;;5017004;28;20569;-49
2022/06/26 05:34:50;;;;;;;1.45;1.20;;;18.30;99.90;;;;;;5015562;28;20136;-50
2022/06/26 05:37:17;;;;;;;1.95;1.08;;;18.30;99.90;;;;;;5014509;28;20788;-51
2022/06/26 05:39:44;;;;;;;1.05;0.93;;;18.40;99.90;;;;;;5016771;28;20049;-50
2022/06/26 05:42:11;;;;;;;2.83;1.15;;;18.50;99.90;;;;;;5015922;28;20064;-49
2022/06/26 05:44:39;;;;;;;1.30;1.20;;;18.60;99.90;;;;;;5014821;28;20076;-50
2022/06/26 05:47:06;;;;;;;3.22;1.38;;;18.70;99.90;;;;;;5016271;28;20045;-51
2022/06/26 05:49:40;;;;;;;1.25;0.88;;;18.80;99.90;;;;;;5014943;28;20041;-51
2022/06/26 05:52:12;;;;;;;1.17;1.08;;;18.90;99.90;;;;;;5014732;28;20336;-49
2022/06/26 05:55:06;;;;;;;1.38;0.77;;;19.10;99.90;;;;;;5015307;28;20056;-50
2022/06/26 05:57:39;;;;;;;1.52;1.40;;;19.10;99.90;;;;;;5013752;28;20553;-48
2022/06/26 06:00:44;;;;;;;2.58;1.13;;;19.20;99.90;;;;;;5000441;28;20212;-49
2022/06/26 06:03:11;;;;;;;6.25;1.10;;;19.30;99.90;;;;;;4994219;28;20046;-50
2022/06/26 06:05:39;;;;;;;0.82;0.80;;;19.40;99.90;;;;;;4994382;28;20046;-50
2022/06/26 06:08:06;;;;;;;1.15;1.05;;;19.50;99.90;;;;;;4994230;28;20104;-50
2022/06/26 06:10:33;;;;;;;1.17;0.88;;;19.60;99.90;;;;;;4996128;28;20049;-48
2022/06/26 06:13:05;;;;;;;1.08;0.95;;;19.70;99.90;;;;;;4994516;28;20048;-47
2022/06/26 06:15:32;;;;;;;2.40;0.93;;;19.80;99.90;;;;;;4994491;28;20527;-50
2022/06/26 06:17:59;;;;;;;1.65;1.35;;;19.90;99.90;;;;;;5006771;28;20041;-50
2022/06/26 06:20:26;;;;;;;1.92;1.15;;;20.00;99.90;;;;;;5014554;28;20041;-49
2022/06/26 06:23:00;;;;;;;0.63;0.63;;;20.20;99.90;;;;;;5013068;28;20057;-51
2022/06/26 06:25:26;;;;;;;1.15;1.10;;;20.30;99.90;;;;;;5016637;28;20056;-51
2022/06/26 06:27:53;;;;;;;2.35;1.00;;;20.40;99.90;;;;;;5013724;28;20538;-51
2022/06/26 06:30:27;;;;;;;1.25;1.15;;;20.50;99.90;;;;;;5008107;28;20423;-50
2022/06/26 06:32:54;;;;;;;1.17;1.00;;;20.70;99.90;;;;;;5013782;28;20199;-51
2022/06/26 06:35:34;;;;;;;2.55;0.98;;;20.70;99.90;;;;;;5014162;28;20041;-51
2022/06/26 06:38:01;;;;;;;3.75;0.93;;;20.90;99.90;;;;;;5013915;28;20122;-52
2022/06/26 06:40:29;;;;;;;2.42;0.93;;;20.90;99.90;;;;;;5013715;28;20042;-50
2022/06/26 06:42:59;;;;;;;0.80;0.77;;;21.00;99.90;;;;;;5013398;28;20336;-50
2022/06/26 06:45:50;;;;;;;1.05;0.80;;;21.10;99.90;;;;;;5014970;28;20049;-49
2022/06/26 06:48:17;;;;;;;1.38;0.95;;;21.20;99.90;;;;;;5015198;28;20140;-49
2022/06/26 06:51:04;;;;;;;0.80;0.80;;;21.40;99.90;;;;;;5014841;28;20091;-49
2022/06/26 06:53:31;;;;;;;2.13;1.08;;;21.50;99.90;;;;;;5015258;28;20432;-48
2022/06/26 06:55:58;;;;;;;1.10;1.00;;;21.60;99.90;;;;;;5013217;28;20042;-51
2022/06/26 06:58:25;;;;;;;1.65;1.00;;;21.70;99.90;;;;;;5013580;28;20130;-54
2022/06/26 07:00:52;;;;;;;1.63;0.93;;;21.90;99.90;;;;;;5012580;28;20049;-51
2022/06/26 07:03:21;;;;;;;1.23;0.95;;;22.00;99.90;;;;;;5012145;28;20045;-62
2022/06/26 07:05:48;;;;;;;2.40;2.03;;;22.10;99.90;;;;;;5014109;28;20344;-64
2022/06/26 07:08:15;;;;;;;3.28;0.98;;;22.20;99.90;;;;;;5012928;28;20087;-62
2022/06/26 07:10:42;;;;;;;2.95;1.55;;;22.20;99.90;;;;;;5013619;28;20063;-64
2022/06/26 07:13:10;;;;;;;1.40;0.80;;;22.30;99.90;;;;;;5013442;28;20084;-63
2022/06/26 07:15:37;;;;;;;1.25;1.15;;;22.30;99.90;;;;;;5015698;28;20042;-63
2022/06/26 07:18:04;;;;;;;2.38;1.13;;;22.40;99.90;;;;;;5013264;28;20041;-63
2022/06/26 07:20:32;;;;;;;2.13;1.05;;;22.40;99.90;;;;;;5013874;28;20526;-63
2022/06/26 07:22:59;;;;;;;1.85;1.10;;;22.50;99.90;;;;;;5013913;28;20057;-63
2022/06/26 07:25:44;;;;;;;1.77;1.02;;;22.60;99.90;;;;;;5015091;28;20045;-64
2022/06/26 07:28:12;;;;;;;1.08;0.90;;;22.60;99.90;;;;;;5014512;28;20067;-66
2022/06/26 07:30:39;;;;;;;1.98;1.17;;;22.70;99.90;;;;;;4993270;28;20054;-62
2022/06/26 07:35:56;;;;;;;1.95;0.85;;;22.80;99.90;;;;;;5011992;28;20100;-63
2022/06/26 07:38:28;;;;;;;1.13;1.02;;;22.90;99.90;;;;;;5015027;28;20037;-62
2022/06/26 07:40:56;;;;;;;2.38;0.88;;;22.90;99.90;;;;;;5012975;28;20057;-63
2022/06/26 07:43:24;;;;;;;1.17;1.02;;;22.90;99.90;;;;;;5010695;28;20072;-64
2022/06/26 07:45:51;;;;;;;1.20;1.08;;;23.00;99.90;;;;;;5013779;28;20045;-63
2022/06/26 07:48:20;;;;;;;1.23;0.95;;;23.10;99.90;;;;;;5012701;28;20119;-64
2022/06/26 07:50:48;;;;;;;2.35;1.27;;;23.20;99.90;;;;;;4996963;28;20049;-63
2022/06/26 07:53:15;;;;;;;1.45;1.23;;;23.20;99.90;;;;;;5014648;28;20069;-64
2022/06/26 07:55:42;;;;;;;1.60;1.42;;;23.30;99.90;;;;;;5014979;28;20038;-64
2022/06/26 07:58:09;;;;;;;1.23;1.00;;;23.30;99.90;;;;;;5013951;28;20630;-63
2022/06/26 08:00:36;;;;;;;1.50;1.20;;;23.40;99.90;;;;;;5013192;28;20037;-64
2022/06/26 08:03:04;;;;;;;2.40;0.80;;;23.40;99.90;;;;;;5011962;28;20072;-63
2022/06/26 08:05:31;;;;;;;1.02;0.90;;;23.50;99.90;;;;;;5013301;28;20065;-64
2022/06/26 08:07:58;;;;;;;1.05;1.02;;;23.60;99.90;;;;;;5014814;28;20724;-64
2022/06/26 08:10:34;;;;;;;5.35;1.10;;;23.60;99.90;;;;;;5012641;28;20042;-60
2022/06/26 08:13:01;;;;;;;3.65;0.80;;;23.70;99.90;;;;;;5014534;28;20037;-61
2022/06/26 08:15:28;;;;;;;1.65;1.40;;;23.80;99.90;;;;;;4996937;28;20037;-62
2022/06/26 08:17:54;;;;;;;2.63;0.90;;;23.80;99.90;;;;;;5014729;28;20052;-61
2022/06/26 08:20:22;;;;;;;5.05;1.10;;;23.90;99.90;;;;;;5012702;28;20051;-61
2022/06/26 08:22:49;;;;;;;1.00;0.98;;;24.00;99.90;;;;;;5014493;28;20127;-61
2022/06/26 08:25:16;;;;;;;0.80;0.80;;;24.20;99.90;;;;;;5014568;28;20574;-61
2022/06/26 08:27:43;;;;;;;6.57;1.45;;;24.40;99.90;;;;;;5013659;28;20049;-61
2022/06/26 08:30:11;;;;;;;2.38;0.90;;;24.50;99.90;;;;;;5013569;28;20049;-61
2022/06/26 08:32:41;;;;;;;1.00;0.90;;;24.80;99.90;;;;;;5014342;28;20631;-61
2022/06/26 08:35:10;;;;;;;1.77;0.70;;;25.00;99.90;;;;;;5014491;28;20530;-61
2022/06/26 08:37:37;;;;;;;2.60;1.10;;;25.30;99.90;;;;;;5013776;28;20041;-61
2022/06/26 08:40:05;;;;;;;2.60;0.80;;;25.50;99.90;;;;;;5014188;28;20683;-61
2022/06/26 08:42:38;;;;;;;1.80;0.88;;;25.60;99.30;;;;;;5013263;28;20684;-61
2022/06/26 08:45:06;;;;;;;2.47;0.85;;;25.70;99.90;;;;;;5014176;28;20051;-61
2022/06/26 08:47:38;;;;;;;1.55;1.15;;;25.70;99.90;;;;;;5017910;28;20045;-62
2022/06/26 08:50:06;;;;;;;0.80;0.80;;;25.70;99.90;;;;;;5017252;28;20075;-61
2022/06/26 08:52:34;;;;;;;1.38;0.80;;;25.90;99.90;;;;;;5018254;28;20049;-61
2022/06/26 08:55:04;;;;;;;1.05;0.85;;;26.10;99.90;;;;;;5018094;28;20141;-62
2022/06/26 08:57:33;;;;;;;3.60;0.85;;;26.40;99.90;;;;;;5018223;28;20045;-61
2022/06/26 09:00:00;;;;;;;1.10;0.80;;;26.50;98.80;;;;;;5016396;28;20041;-61
2022/06/26 09:02:27;;;;;;;1.88;1.00;;;26.60;99.90;;;;;;5018249;28;20172;-61
2022/06/26 09:04:56;;;;;;;1.25;0.70;;;26.80;99.90;;;;;;5002392;28;20873;-61
2022/06/26 09:07:23;;;;;;;1.73;1.10;;;27.00;99.90;;;;;;4998145;28;20052;-61
2022/06/26 09:09:50;;;;;;;3.10;0.90;;;27.30;99.30;;;;;;4996758;28;20050;-62
2022/06/26 09:12:17;;;;;;;1.55;0.95;;;27.40;99.20;;;;;;4997595;28;20037;-61
2022/06/26 09:14:44;;;;;;;1.02;1.00;;;27.70;99.90;;;;;;4998469;28;20053;-61
2022/06/26 09:17:11;;;;;;;3.90;1.00;;;27.90;99.90;;;;;;5002625;28;20687;-62
2022/06/26 09:19:44;;;;;;;2.88;1.10;;;28.00;95.50;;;;;;5017367;28;20050;-61
2022/06/26 09:22:13;;;;;;;0.80;0.80;;;28.00;96.30;;;;;;5015852;28;20046;-61
2022/06/26 09:24:53;;;;;;;3.17;0.98;;;28.10;93.40;;;;;;5017452;28;20708;-61
2022/06/26 09:27:21;;;;;;;1.15;1.02;;;28.10;92.00;;;;;;5017414;28;20045;-61
2022/06/26 09:29:50;;;;;;;1.23;0.90;;;28.10;92.90;;;;;;5017006;28;20252;-61
2022/06/26 09:32:18;;;;;;;1.17;0.98;;;28.10;94.80;;;;;;5016332;28;20261;-62
2022/06/26 09:34:46;;;;;;;5.40;0.98;;;28.10;90.80;;;;;;5016181;28;20115;-61
2022/06/26 09:37:14;;;;;;;1.20;1.08;;;28.10;89.80;;;;;;5016326;28;20033;-62
2022/06/26 09:40:03;;;;;;;1.90;0.98;;;28.20;90.10;;;;;;5015464;28;20045;-62
2022/06/26 09:42:33;;;;;;;2.83;0.90;;;28.10;82.80;;;;;;5016555;28;20115;-62
2022/06/26 09:45:01;;;;;;;1.27;0.98;;;28.10;84.10;;;;;;5017288;28;20116;-62
2022/06/26 09:47:36;;;;;;;2.53;0.90;;;28.10;82.60;;;;;;5017383;28;20696;-62
2022/06/26 09:50:06;;;;;;;1.02;0.80;;;28.20;86.10;;;;;;5014591;28;20602;-62
2022/06/26 09:52:33;;;;;;;1.45;1.02;;;28.20;87.10;;;;;;5016490;28;20045;-62
2022/06/26 09:55:02;;;;;;;2.53;1.00;;;28.30;83.60;;;;;;5016826;28;20144;-62
2022/06/26 09:57:29;;;;;;;1.55;1.25;;;28.30;82.70;;;;;;5016160;28;20041;-62
2022/06/26 09:59:57;;;;;;;0.77;0.77;;;28.40;83.20;;;;;;5015755;28;20041;-62
2022/06/26 10:08:06;;;;;;;3.05;0.90;;;28.50;79.80;;;;;;5015763;28;20045;-62
2022/06/26 10:10:34;;;;;;;3.25;0.98;;;28.60;79.00;;;;;;5016581;28;20080;-62
2022/06/26 10:13:06;;;;;;;3.67;0.90;;;28.80;79.40;;;;;;5015767;28;20046;-61
2022/06/26 10:15:56;;;;;;;0.95;0.80;;;28.90;75.70;;;;;;5015490;28;20045;-62
2022/06/26 10:18:34;;;;;;;0.80;0.80;;;28.90;80.00;;;;;;5016089;28;20052;-62
2022/06/26 10:21:09;;;;;;;0.88;0.88;;;29.00;72.30;;;;;;5016674;28;20051;-62
2022/06/26 10:23:38;;;;;;;0.65;0.65;;;28.90;76.70;;;;;;5015883;28;20733;-62
2022/06/26 10:26:15;;;;;;;1.58;0.80;;;29.00;70.60;;;;;;5016077;28;20081;-62
2022/06/26 10:29:01;;;;;;;2.50;0.90;;;29.10;71.30;;;;;;5014297;28;20049;-62
2022/06/26 10:31:44;;;;;;;1.73;1.00;;;29.00;68.30;;;;;;4995511;28;20068;-62
2022/06/26 10:34:25;;;;;;;4.85;1.10;;;29.10;73.80;;;;;;4995347;28;20057;-62
2022/06/26 10:37:15;;;;;;;1.17;0.80;;;29.20;72.30;;;;;;4996692;28;20042;-62
2022/06/26 10:39:51;;;;;;;1.95;1.05;;;29.30;71.50;;;;;;4996562;28;20566;-63
2022/06/26 10:45:10;;;;;;;0.82;0.80;;;29.50;69.20;;;;;;5014648;28;20851;-62
2022/06/26 10:47:45;;;;;;;1.10;0.90;;;29.50;69.70;;;;;;5016059;28;20503;-62
2022/06/26 10:50:26;;;;;;;0.77;0.77;;;29.60;70.60;;;;;;5015923;28;20045;-62
2022/06/26 10:53:12;;;;;;;1.58;1.10;;;29.50;69.90;;;;;;5014396;28;20046;-62
2022/06/26 10:55:41;;;;;;;0.88;0.85;;;29.60;68.80;;;;;;5014166;28;20049;-62
2022/06/26 10:58:16;;;;;;;1.70;1.00;;;29.50;70.90;;;;;;5014917;28;20045;-62
2022/06/26 11:00:43;;;;;;;1.52;0.80;;;29.60;71.60;;;;;;5013559;28;20507;-62
2022/06/26 11:03:18;;;;;;;2.30;0.77;;;29.70;66.70;;;;;;5015789;28;20698;-62
2022/06/26 11:05:56;;;;;;;1.05;0.90;;;29.80;68.20;;;;;;5010635;28;20053;-62
2022/06/26 11:08:30;;;;;;;1.17;0.65;;;29.90;67.90;;;;;;4994716;28;20058;-62
2022/06/26 11:11:06;;;;;;;1.30;1.05;;;30.00;68.30;;;;;;4996515;28;20076;-63
2022/06/26 11:13:35;;;;;;;1.00;0.70;;;30.10;65.50;;;;;;5015657;28;20120;-62
2022/06/26 11:16:05;;;;;;;1.27;0.90;;;30.20;64.50;;;;;;5014118;28;20038;-62
2022/06/26 11:18:34;;;;;;;1.10;0.98;;;30.20;63.80;;;;;;5013958;28;20060;-63
2022/06/26 11:21:02;;;;;;;1.27;0.90;;;30.20;61.90;;;;;;5015050;28;20056;-63
2022/06/26 11:23:35;;;;;;;1.73;0.80;;;30.20;63.40;;;;;;5016113;28;20045;-63
2022/06/26 11:26:05;;;;;;;2.20;1.08;;;30.20;65.30;;;;;;5014032;28;20744;-62
2022/06/26 11:28:34;;;;;;;0.82;0.82;;;30.30;66.40;;;;;;5015262;28;20056;-62
2022/06/26 11:31:04;;;;;;;1.08;0.82;;;30.30;62.80;;;;;;5014097;28;20065;-62
2022/06/26 11:33:34;;;;;;;0.70;0.70;;;30.30;63.50;;;;;;5013338;28;20053;-62
2022/06/26 11:36:12;;;;;;;3.65;0.90;;;30.30;62.90;;;;;;5015663;28;20048;-61
2022/06/26 11:38:50;;;;;;;1.08;0.82;;;30.30;65.20;;;;;;5014664;28;20242;-62
2022/06/26 11:41:17;;;;;;;2.17;0.95;;;30.20;62.10;;;;;;5014768;28;20045;-62
2022/06/26 11:43:46;;;;;;;0.80;0.80;;;30.30;62.20;;;;;;4995074;28;21038;-62
2022/06/26 11:46:13;;;;;;;0.77;0.77;;;30.40;60.60;;;;;;4994263;28;20061;-62
2022/06/26 11:48:40;;;;;;;0.85;0.85;;;30.50;61.50;;;;;;5010907;28;20049;-62
2022/06/26 11:51:07;;;;;;;0.80;0.80;;;30.60;61.00;;;;;;5013586;28;20069;-62
2022/06/26 11:53:34;;;;;;;1.10;0.93;;;30.60;62.80;;;;;;5015149;28;20096;-61
2022/06/26 11:56:03;;;;;;;1.60;1.00;;;30.80;63.00;;;;;;5012976;28;20067;-61
2022/06/26 11:58:32;;;;;;;3.85;1.00;;;30.70;59.80;;;;;;5014565;28;20072;-62
2022/06/26 12:01:04;;;;;;;0.80;0.80;;;30.60;59.80;;;;;;5013753;28;20061;-62
2022/06/26 12:03:31;;;;;;;2.58;0.85;;;30.70;60.80;;;;;;5013768;28;20562;-62
2022/06/26 12:05:58;;;;;;;1.88;0.90;;;30.80;62.90;;;;;;5014275;28;20061;-62
2022/06/26 12:08:28;;;;;;;1.08;1.00;;;30.90;59.30;;;;;;4995179;28;20052;-62
2022/06/26 12:10:55;;;;;;;2.58;1.80;;;30.90;59.60;;;;;;5015122;28;20591;-62
2022/06/26 12:13:30;;;;;;;1.17;0.50;;;30.90;60.40;;;;;;5013011;28;20195;-62
2022/06/26 12:16:06;;;;;;;2.20;0.77;;;31.00;58.90;;;;;;5013536;28;20047;-62
2022/06/26 12:18:40;;;;;;;0.70;0.70;;;31.00;57.70;;;;;;5013210;28;20041;-62
2022/06/26 12:21:20;;;;;;;1.13;0.77;;;31.00;60.50;;;;;;5014133;28;20443;-62
2022/06/26 12:23:49;;;;;;;0.98;0.88;;;31.10;56.20;;;;;;5006471;28;20050;-60
2022/06/26 12:26:22;;;;;;;1.20;0.70;;;31.10;58.00;;;;;;4995502;28;20056;-62
2022/06/26 12:29:00;;;;;;;1.13;0.85;;;31.10;58.30;;;;;;5012692;28;20052;-62
2022/06/26 12:31:27;;;;;;;2.50;1.02;;;31.20;57.20;;;;;;5014697;28;20523;-61
2022/06/26 12:33:54;;;;;;;2.08;0.90;;;31.40;58.30;;;;;;4993918;28;20265;-61
2022/06/26 12:36:21;;;;;;;1.02;0.70;;;31.50;56.70;;;;;;4995125;28;20041;-62
2022/06/26 12:38:48;;;;;;;2.00;0.90;;;31.50;56.60;;;;;;4977190;28;20093;-62
2022/06/26 12:41:17;;;;;;;0.70;0.68;;;31.60;56.70;;;;;;4996170;28;20041;-62
2022/06/26 12:43:50;;;;;;;1.20;0.90;;;31.50;57.50;;;;;;5014431;28;20156;-62
2022/06/26 12:46:24;;;;;;;0.93;0.65;;;31.60;58.40;;;;;;5011866;28;20525;-63
2022/06/26 12:48:51;;;;;;;1.77;0.75;;;31.70;56.90;;;;;;5014629;28;21043;-63
2022/06/26 12:51:18;;;;;;;1.27;0.60;;;31.70;56.00;;;;;;5033685;28;20063;-63
2022/06/26 12:53:45;;;;;;;1.02;0.93;;;31.70;56.20;;;;;;5033842;28;20837;-63
2022/06/26 12:56:12;;;;;;;2.17;1.05;;;31.80;56.40;;;;;;5018683;28;20053;-63
2022/06/26 12:58:40;;;;;;;2.00;0.65;;;31.90;54.90;;;;;;5012071;28;20056;-63
2022/06/26 13:01:07;;;;;;;0.70;0.65;;;31.90;56.70;;;;;;5012883;28;20037;-63
2022/06/26 13:03:35;;;;;;;1.17;0.70;;;31.90;54.80;;;;;;5011994;28;20046;-63
2022/06/26 13:06:03;;;;;;;3.72;1.05;;;32.10;54.80;;;;;;5014124;28;20124;-63
2022/06/26 13:08:34;;;;;;;0.70;0.70;;;32.10;54.00;;;;;;5002129;28;20841;-63
2022/06/26 13:13:48;;;;;;;2.63;1.13;;;32.30;53.50;;;;;;5013416;28;20049;-62
2022/06/26 13:16:34;;;;;;;2.25;1.00;;;32.50;54.20;;;;;;5014052;28;20037;-62
2022/06/26 13:19:02;;;;;;;0.88;0.88;;;32.50;50.20;;;;;;4993614;28;20042;-63